sensor_id;sensor_type;location;lat;lon;timestamp;temperature;humidity
33414;DHT22;60055;41.884;12.534;2022-12-29T00:00:08;11.70;99.90
33414;DHT22;60055;41.884;12.534;2022-12-29T00:02:33;11.60;99.90
33414;DHT22;60055;41.884;12.534;2022-12-29T00:04:59;11.70;99.90
33414;DHT22;60055;41.884;12.534;2022-12-29T00:07:25;11.60;99.90
33414;DHT22;60055;41.884;12.534;2022-12-29T00:09:51;11.60;99.90
33414;DHT22;60055;41.884;12.534;2022-12-29T00:12:16;11.60;99.90
33414;DHT22;60055;41.884;12.534;2022-12-29T00:14:42;11.50;99.90
33414;DHT22;60055;41.884;12.534;2022-12-29T00:17:26;11.50;99.90
33414;DHT22;60055;41.884;12.534;2022-12-29T00:19:51;11.50;99.90
33414;DHT22;60055;41.884;12.534;2022-12-29T00:22:35;11.60;99.90
33414;DHT22;60055;41.884;12.534;2022-12-29T00:25:19;11.60;99.90
33414;DHT22;60055;41.884;12.534;2022-12-29T00:28:04;11.70;99.90
33414;DHT22;60055;41.884;12.534;2022-12-29T00:30:48;11.70;99.90
33414;DHT22;60055;41.884;12.534;2022-12-29T00:33:32;11.70;99.90
33414;DHT22;60055;41.884;12.534;2022-12-29T00:36:25;11.60;99.90
33414;DHT22;60055;41.884;12.534;2022-12-29T00:39:04;11.60;99.90
33414;DHT22;60055;41.884;12.534;2022-12-29T00:41:51;11.60;99.90
33414;DHT22;60055;41.884;12.534;2022-12-29T00:44:35;11.60;99.90
33414;DHT22;60055;41.884;12.534;2022-12-29T00:47:00;11.60;99.90
33414;DHT22;60055;41.884;12.534;2022-12-29T00:49:30;11.60;99.90
33414;DHT22;60055;41.884;12.534;2022-12-29T00:54:32;11.70;99.90
33414;DHT22;60055;41.884;12.534;2022-12-29T00:56:59;11.70;99.90
33414;DHT22;60055;41.884;12.534;2022-12-29T00:59:25;11.60;99.90
33414;DHT22;60055;41.884;12.534;2022-12-29T01:01:52;11.50;99.90
33414;DHT22;60055;41.884;12.534;2022-12-29T01:04:19;11.50;99.90
33414;DHT22;60055;41.884;12.534;2022-12-29T01:06:45;11.50;99.90
33414;DHT22;60055;41.884;12.534;2022-12-29T01:09:11;11.50;99.90
33414;DHT22;60055;41.884;12.534;2022-12-29T01:11:55;11.50;99.90
33414;DHT22;60055;41.884;12.534;2022-12-29T01:14:22;11.50;99.90
33414;DHT22;60055;41.884;12.534;2022-12-29T01:16:48;11.50;99.90
33414;DHT22;60055;41.884;12.534;2022-12-29T01:19:14;11.50;99.90
33414;DHT22;60055;41.884;12.534;2022-12-29T01:21:40;11.40;99.90
33414;DHT22;60055;41.884;12.534;2022-12-29T01:24:06;11.50;99.90
33414;DHT22;60055;41.884;12.534;2022-12-29T01:26:31;11.50;99.90
33414;DHT22;60055;41.884;12.534;2022-12-29T01:28:57;11.40;99.90
33414;DHT22;60055;41.884;12.534;2022-12-29T01:31:23;11.40;99.90
33414;DHT22;60055;41.884;12.534;2022-12-29T01:33:48;11.40;99.90
33414;DHT22;60055;41.884;12.534;2022-12-29T01:36:16;11.30;99.90
33414;DHT22;60055;41.884;12.534;2022-12-29T01:38:42;11.30;99.90
33414;DHT22;60055;41.884;12.534;2022-12-29T01:41:10;11.40;99.90
33414;DHT22;60055;41.884;12.534;2022-12-29T01:43:47;11.30;99.90
33414;DHT22;60055;41.884;12.534;2022-12-29T01:46:34;11.40;99.90
33414;DHT22;60055;41.884;12.534;2022-12-29T01:51:36;11.40;99.90
33414;DHT22;60055;41.884;12.534;2022-12-29T01:54:04;11.40;99.90
33414;DHT22;60055;41.884;12.534;2022-12-29T01:56:33;11.40;99.90
33414;DHT22;60055;41.884;12.534;2022-12-29T01:59:06;11.40;99.90
33414;DHT22;60055;41.884;12.534;2022-12-29T02:01:35;11.30;99.90
33414;DHT22;60055;41.884;12.534;2022-12-29T02:04:01;11.40;99.90
33414;DHT22;60055;41.884;12.534;2022-12-29T02:06:33;11.50;99.90
33414;DHT22;60055;41.884;12.534;2022-12-29T02:09:00;11.30;99.90
33414;DHT22;60055;41.884;12.534;2022-12-29T02:11:26;11.30;99.90
33414;DHT22;60055;41.884;12.534;2022-12-29T02:13:54;11.20;99.90
33414;DHT22;60055;41.884;12.534;2022-12-29T02:16:29;11.20;99.90
33414;DHT22;60055;41.884;12.534;2022-12-29T02:21:44;11.00;99.90
33414;DHT22;60055;41.884;12.534;2022-12-29T02:30:11;11.00;99.90
33414;DHT22;60055;41.884;12.534;2022-12-29T02:33:28;11.00;99.90
33414;DHT22;60055;41.884;12.534;2022-12-29T02:36:12;11.00;99.90
33414;DHT22;60055;41.884;12.534;2022-12-29T02:38:56;11.00;99.90
33414;DHT22;60055;41.884;12.534;2022-12-29T02:41:36;10.90;99.90
33414;DHT22;60055;41.884;12.534;2022-12-29T02:44:18;10.90;99.90
33414;DHT22;60055;41.884;12.534;2022-12-29T02:47:10;11.00;99.90
33414;DHT22;60055;41.884;12.534;2022-12-29T02:52:26;11.30;99.90
33414;DHT22;60055;41.884;12.534;2022-12-29T02:54:55;11.30;99.90
33414;DHT22;60055;41.884;12.534;2022-12-29T03:00:04;11.00;99.90
33414;DHT22;60055;41.884;12.534;2022-12-29T03:08:34;11.10;99.90
33414;DHT22;60055;41.884;12.534;2022-12-29T03:11:11;11.10;99.90
33414;DHT22;60055;41.884;12.534;2022-12-29T03:14:17;11.10;99.90
33414;DHT22;60055;41.884;12.534;2022-12-29T03:17:24;11.10;99.90
33414;DHT22;60055;41.884;12.534;2022-12-29T03:19:58;11.10;99.90
33414;DHT22;60055;41.884;12.534;2022-12-29T03:22:28;11.10;99.90
33414;DHT22;60055;41.884;12.534;2022-12-29T03:25:09;11.10;99.90
33414;DHT22;60055;41.884;12.534;2022-12-29T03:27:49;11.10;99.90
33414;DHT22;60055;41.884;12.534;2022-12-29T03:30:16;11.10;99.90
33414;DHT22;60055;41.884;12.534;2022-12-29T03:32:49;11.10;99.90
33414;DHT22;60055;41.884;12.534;2022-12-29T03:35:17;11.10;99.90
33414;DHT22;60055;41.884;12.534;2022-12-29T03:38:08;11.10;99.90
33414;DHT22;60055;41.884;12.534;2022-12-29T03:40:38;11.20;99.90
33414;DHT22;60055;41.884;12.534;2022-12-29T03:43:05;11.10;99.90
33414;DHT22;60055;41.884;12.534;2022-12-29T03:45:32;11.10;99.90
33414;DHT22;60055;41.884;12.534;2022-12-29T03:47:58;11.00;99.90
33414;DHT22;60055;41.884;12.534;2022-12-29T03:50:23;11.00;99.90
33414;DHT22;60055;41.884;12.534;2022-12-29T03:52:49;11.30;99.90
33414;DHT22;60055;41.884;12.534;2022-12-29T03:55:14;11.30;99.90
33414;DHT22;60055;41.884;12.534;2022-12-29T03:57:40;11.20;99.90
33414;DHT22;60055;41.884;12.534;2022-12-29T04:00:07;11.20;99.90
33414;DHT22;60055;41.884;12.534;2022-12-29T04:02:33;11.20;99.90
33414;DHT22;60055;41.884;12.534;2022-12-29T04:04:58;11.20;99.90
33414;DHT22;60055;41.884;12.534;2022-12-29T04:07:24;11.00;99.90
33414;DHT22;60055;41.884;12.534;2022-12-29T04:09:49;11.00;99.90
33414;DHT22;60055;41.884;12.534;2022-12-29T04:12:15;10.80;99.90
33414;DHT22;60055;41.884;12.534;2022-12-29T04:14:40;10.90;99.90
33414;DHT22;60055;41.884;12.534;2022-12-29T04:17:06;10.90;99.90
33414;DHT22;60055;41.884;12.534;2022-12-29T04:19:32;11.00;99.90
33414;DHT22;60055;41.884;12.534;2022-12-29T04:21:57;11.10;99.90
33414;DHT22;60055;41.884;12.534;2022-12-29T04:24:23;11.30;99.90
33414;DHT22;60055;41.884;12.534;2022-12-29T04:26:49;11.40;99.90
33414;DHT22;60055;41.884;12.534;2022-12-29T04:29:15;11.50;99.90
33414;DHT22;60055;41.884;12.534;2022-12-29T04:31:41;11.50;99.90
33414;DHT22;60055;41.884;12.534;2022-12-29T04:34:07;11.50;99.90
33414;DHT22;60055;41.884;12.534;2022-12-29T04:36:33;11.30;99.90
33414;DHT22;60055;41.884;12.534;2022-12-29T04:38:59;11.30;99.90
33414;DHT22;60055;41.884;12.534;2022-12-29T04:41:25;11.50;99.90
33414;DHT22;60055;41.884;12.534;2022-12-29T04:43:50;11.50;99.90
33414;DHT22;60055;41.884;12.534;2022-12-29T04:46:16;11.40;99.90
33414;DHT22;60055;41.884;12.534;2022-12-29T04:48:42;11.40;99.90
33414;DHT22;60055;41.884;12.534;2022-12-29T04:51:07;11.30;99.90
33414;DHT22;60055;41.884;12.534;2022-12-29T04:53:33;11.30;99.90
33414;DHT22;60055;41.884;12.534;2022-12-29T04:55:58;11.20;99.90
33414;DHT22;60055;41.884;12.534;2022-12-29T04:58:24;11.30;99.90
33414;DHT22;60055;41.884;12.534;2022-12-29T05:00:51;11.30;99.90
33414;DHT22;60055;41.884;12.534;2022-12-29T05:03:17;11.20;99.90
33414;DHT22;60055;41.884;12.534;2022-12-29T05:05:42;11.20;99.90
33414;DHT22;60055;41.884;12.534;2022-12-29T05:08:08;11.20;99.90
33414;DHT22;60055;41.884;12.534;2022-12-29T05:10:34;11.10;99.90
33414;DHT22;60055;41.884;12.534;2022-12-29T05:12:59;11.10;99.90
33414;DHT22;60055;41.884;12.534;2022-12-29T05:15:26;11.00;99.90
33414;DHT22;60055;41.884;12.534;2022-12-29T05:17:52;11.10;99.90
33414;DHT22;60055;41.884;12.534;2022-12-29T05:20:18;10.90;99.90
33414;DHT22;60055;41.884;12.534;2022-12-29T05:22:44;11.00;99.90
33414;DHT22;60055;41.884;12.534;2022-12-29T05:25:10;11.00;99.90
33414;DHT22;60055;41.884;12.534;2022-12-29T05:27:35;11.10;99.90
33414;DHT22;60055;41.884;12.534;2022-12-29T05:30:01;11.10;99.90
33414;DHT22;60055;41.884;12.534;2022-12-29T05:32:27;11.00;99.90
33414;DHT22;60055;41.884;12.534;2022-12-29T05:34:53;11.20;99.90
33414;DHT22;60055;41.884;12.534;2022-12-29T05:37:18;11.10;99.90
33414;DHT22;60055;41.884;12.534;2022-12-29T05:39:44;11.00;99.90
33414;DHT22;60055;41.884;12.534;2022-12-29T05:42:10;11.10;99.90
33414;DHT22;60055;41.884;12.534;2022-12-29T05:44:35;11.10;99.90
33414;DHT22;60055;41.884;12.534;2022-12-29T05:47:01;11.10;99.90
33414;DHT22;60055;41.884;12.534;2022-12-29T05:49:26;11.10;99.90
33414;DHT22;60055;41.884;12.534;2022-12-29T05:51:52;11.20;99.90
33414;DHT22;60055;41.884;12.534;2022-12-29T05:54:17;11.20;99.90
33414;DHT22;60055;41.884;12.534;2022-12-29T05:56:43;11.20;99.90
33414;DHT22;60055;41.884;12.534;2022-12-29T05:59:09;11.20;99.90
33414;DHT22;60055;41.884;12.534;2022-12-29T06:01:34;11.20;99.90
33414;DHT22;60055;41.884;12.534;2022-12-29T06:04:00;11.20;99.90
33414;DHT22;60055;41.884;12.534;2022-12-29T06:06:26;11.20;99.90
33414;DHT22;60055;41.884;12.534;2022-12-29T06:08:52;11.40;99.90
33414;DHT22;60055;41.884;12.534;2022-12-29T06:11:17;11.30;99.90
33414;DHT22;60055;41.884;12.534;2022-12-29T06:13:43;11.30;99.90
33414;DHT22;60055;41.884;12.534;2022-12-29T06:16:09;11.30;99.90
33414;DHT22;60055;41.884;12.534;2022-12-29T06:18:35;11.30;99.90
33414;DHT22;60055;41.884;12.534;2022-12-29T06:21:01;11.30;99.90
33414;DHT22;60055;41.884;12.534;2022-12-29T06:23:27;11.30;99.90
33414;DHT22;60055;41.884;12.534;2022-12-29T06:25:53;11.40;99.90
33414;DHT22;60055;41.884;12.534;2022-12-29T06:28:18;11.40;99.90
33414;DHT22;60055;41.884;12.534;2022-12-29T06:30:45;11.30;99.90
33414;DHT22;60055;41.884;12.534;2022-12-29T06:33:12;11.30;99.90
33414;DHT22;60055;41.884;12.534;2022-12-29T06:35:38;11.20;99.90
33414;DHT22;60055;41.884;12.534;2022-12-29T06:38:04;11.20;99.90
33414;DHT22;60055;41.884;12.534;2022-12-29T06:40:35;11.30;99.90
33414;DHT22;60055;41.884;12.534;2022-12-29T06:43:01;11.30;99.90
33414;DHT22;60055;41.884;12.534;2022-12-29T06:45:29;11.30;99.90
33414;DHT22;60055;41.884;12.534;2022-12-29T06:47:55;11.20;99.90
33414;DHT22;60055;41.884;12.534;2022-12-29T06:50:20;11.20;99.90
33414;DHT22;60055;41.884;12.534;2022-12-29T06:52:46;11.20;99.90
33414;DHT22;60055;41.884;12.534;2022-12-29T06:55:11;11.10;99.90
33414;DHT22;60055;41.884;12.534;2022-12-29T06:57:37;11.10;99.90
33414;DHT22;60055;41.884;12.534;2022-12-29T07:00:05;11.20;99.90
33414;DHT22;60055;41.884;12.534;2022-12-29T07:02:32;11.20;99.90
33414;DHT22;60055;41.884;12.534;2022-12-29T07:04:57;11.30;99.90
33414;DHT22;60055;41.884;12.534;2022-12-29T07:07:23;11.10;99.90
33414;DHT22;60055;41.884;12.534;2022-12-29T07:09:49;11.10;99.90
33414;DHT22;60055;41.884;12.534;2022-12-29T07:12:14;11.20;99.90
33414;DHT22;60055;41.884;12.534;2022-12-29T07:14:40;11.20;99.90
33414;DHT22;60055;41.884;12.534;2022-12-29T07:17:07;11.30;99.90
33414;DHT22;60055;41.884;12.534;2022-12-29T07:19:33;11.40;99.90
33414;DHT22;60055;41.884;12.534;2022-12-29T07:21:59;11.40;99.90
33414;DHT22;60055;41.884;12.534;2022-12-29T07:24:25;11.40;99.90
33414;DHT22;60055;41.884;12.534;2022-12-29T07:26:51;11.50;99.90
33414;DHT22;60055;41.884;12.534;2022-12-29T07:29:17;11.40;99.90
33414;DHT22;60055;41.884;12.534;2022-12-29T07:31:43;11.40;99.90
33414;DHT22;60055;41.884;12.534;2022-12-29T07:34:10;11.50;99.90
33414;DHT22;60055;41.884;12.534;2022-12-29T07:36:36;11.40;99.90
33414;DHT22;60055;41.884;12.534;2022-12-29T07:39:02;11.50;99.90
33414;DHT22;60055;41.884;12.534;2022-12-29T07:41:28;11.60;99.90
33414;DHT22;60055;41.884;12.534;2022-12-29T07:43:54;11.70;99.90
33414;DHT22;60055;41.884;12.534;2022-12-29T07:46:19;11.90;99.90
33414;DHT22;60055;41.884;12.534;2022-12-29T07:48:45;12.00;99.90
33414;DHT22;60055;41.884;12.534;2022-12-29T07:51:11;12.10;99.90
33414;DHT22;60055;41.884;12.534;2022-12-29T07:53:36;12.30;99.90
33414;DHT22;60055;41.884;12.534;2022-12-29T07:56:02;12.50;99.90
33414;DHT22;60055;41.884;12.534;2022-12-29T07:58:28;12.60;99.90
33414;DHT22;60055;41.884;12.534;2022-12-29T08:00:54;12.70;99.90
33414;DHT22;60055;41.884;12.534;2022-12-29T08:03:21;12.80;99.90
33414;DHT22;60055;41.884;12.534;2022-12-29T08:05:47;13.00;99.90
33414;DHT22;60055;41.884;12.534;2022-12-29T08:08:13;13.20;99.90
33414;DHT22;60055;41.884;12.534;2022-12-29T08:10:39;13.30;99.90
33414;DHT22;60055;41.884;12.534;2022-12-29T08:13:04;13.40;99.90
33414;DHT22;60055;41.884;12.534;2022-12-29T08:15:30;13.50;99.90
33414;DHT22;60055;41.884;12.534;2022-12-29T08:17:55;13.60;99.90
33414;DHT22;60055;41.884;12.534;2022-12-29T08:20:21;13.80;99.90
33414;DHT22;60055;41.884;12.534;2022-12-29T08:22:47;13.90;99.90
33414;DHT22;60055;41.884;12.534;2022-12-29T08:25:12;14.10;99.90
33414;DHT22;60055;41.884;12.534;2022-12-29T08:27:38;14.10;99.90
33414;DHT22;60055;41.884;12.534;2022-12-29T08:30:04;14.20;99.90
33414;DHT22;60055;41.884;12.534;2022-12-29T08:32:30;14.20;99.90
33414;DHT22;60055;41.884;12.534;2022-12-29T08:34:55;14.40;99.90
33414;DHT22;60055;41.884;12.534;2022-12-29T08:37:21;14.40;99.90
33414;DHT22;60055;41.884;12.534;2022-12-29T08:39:47;14.60;99.90
33414;DHT22;60055;41.884;12.534;2022-12-29T08:42:13;14.70;99.90
33414;DHT22;60055;41.884;12.534;2022-12-29T08:44:38;14.90;99.90
33414;DHT22;60055;41.884;12.534;2022-12-29T08:47:05;15.00;99.90
33414;DHT22;60055;41.884;12.534;2022-12-29T08:49:31;15.10;99.90
33414;DHT22;60055;41.884;12.534;2022-12-29T08:51:58;15.50;99.90
33414;DHT22;60055;41.884;12.534;2022-12-29T08:54:25;15.70;99.90
33414;DHT22;60055;41.884;12.534;2022-12-29T08:56:50;15.50;99.90
33414;DHT22;60055;41.884;12.534;2022-12-29T08:59:16;15.30;99.90
33414;DHT22;60055;41.884;12.534;2022-12-29T09:01:43;15.40;99.90
33414;DHT22;60055;41.884;12.534;2022-12-29T09:04:09;15.50;99.90
33414;DHT22;60055;41.884;12.534;2022-12-29T09:06:34;15.60;99.90
33414;DHT22;60055;41.884;12.534;2022-12-29T09:09:00;15.60;99.90
33414;DHT22;60055;41.884;12.534;2022-12-29T09:11:26;15.50;99.90
33414;DHT22;60055;41.884;12.534;2022-12-29T09:13:53;15.70;99.90
33414;DHT22;60055;41.884;12.534;2022-12-29T09:16:20;15.70;99.90
33414;DHT22;60055;41.884;12.534;2022-12-29T09:18:46;15.80;99.90
33414;DHT22;60055;41.884;12.534;2022-12-29T09:21:12;15.80;99.90
33414;DHT22;60055;41.884;12.534;2022-12-29T09:23:39;16.00;99.90
33414;DHT22;60055;41.884;12.534;2022-12-29T09:26:06;15.90;99.90
33414;DHT22;60055;41.884;12.534;2022-12-29T09:28:33;15.90;99.90
33414;DHT22;60055;41.884;12.534;2022-12-29T09:30:59;16.00;99.90
33414;DHT22;60055;41.884;12.534;2022-12-29T09:33:25;16.10;99.90
33414;DHT22;60055;41.884;12.534;2022-12-29T09:35:52;16.00;99.90
33414;DHT22;60055;41.884;12.534;2022-12-29T09:38:19;16.10;99.90
33414;DHT22;60055;41.884;12.534;2022-12-29T09:40:59;16.10;99.90
33414;DHT22;60055;41.884;12.534;2022-12-29T09:46:40;16.30;99.90
33414;DHT22;60055;41.884;12.534;2022-12-29T09:51:51;16.50;99.90
33414;DHT22;60055;41.884;12.534;2022-12-29T09:54:49;16.40;99.90
33414;DHT22;60055;41.884;12.534;2022-12-29T10:00:06;16.20;99.90
33414;DHT22;60055;41.884;12.534;2022-12-29T10:03:00;16.20;99.90
33414;DHT22;60055;41.884;12.534;2022-12-29T10:08:20;16.20;99.90
33414;DHT22;60055;41.884;12.534;2022-12-29T10:16:11;16.30;99.90
33414;DHT22;60055;41.884;12.534;2022-12-29T10:24:11;16.20;99.90
33414;DHT22;60055;41.884;12.534;2022-12-29T10:26:43;16.10;99.90
33414;DHT22;60055;41.884;12.534;2022-12-29T10:29:34;16.00;99.90
33414;DHT22;60055;41.884;12.534;2022-12-29T10:32:09;16.00;99.90
33414;DHT22;60055;41.884;12.534;2022-12-29T10:34:41;15.90;99.90
33414;DHT22;60055;41.884;12.534;2022-12-29T10:37:34;15.90;99.90
33414;DHT22;60055;41.884;12.534;2022-12-29T10:40:19;15.90;99.90
33414;DHT22;60055;41.884;12.534;2022-12-29T10:42:52;15.90;99.90
33414;DHT22;60055;41.884;12.534;2022-12-29T10:45:19;15.80;99.90
33414;DHT22;60055;41.884;12.534;2022-12-29T10:48:01;15.90;99.90
33414;DHT22;60055;41.884;12.534;2022-12-29T10:50:28;15.90;99.90
33414;DHT22;60055;41.884;12.534;2022-12-29T10:52:57;16.00;99.90
33414;DHT22;60055;41.884;12.534;2022-12-29T10:55:30;16.00;99.90
33414;DHT22;60055;41.884;12.534;2022-12-29T10:58:02;16.00;99.90
33414;DHT22;60055;41.884;12.534;2022-12-29T11:00:30;16.00;99.90
33414;DHT22;60055;41.884;12.534;2022-12-29T11:05:35;16.00;99.90
33414;DHT22;60055;41.884;12.534;2022-12-29T11:08:08;16.00;99.90
33414;DHT22;60055;41.884;12.534;2022-12-29T11:10:37;16.00;99.90
33414;DHT22;60055;41.884;12.534;2022-12-29T11:13:18;16.00;99.90
33414;DHT22;60055;41.884;12.534;2022-12-29T11:15:46;16.00;99.90
33414;DHT22;60055;41.884;12.534;2022-12-29T11:18:33;15.90;99.90
33414;DHT22;60055;41.884;12.534;2022-12-29T11:21:04;16.00;99.90
33414;DHT22;60055;41.884;12.534;2022-12-29T11:23:38;16.00;99.90
33414;DHT22;60055;41.884;12.534;2022-12-29T11:26:14;16.00;99.90
33414;DHT22;60055;41.884;12.534;2022-12-29T11:28:44;16.10;99.90
33414;DHT22;60055;41.884;12.534;2022-12-29T11:31:10;16.20;99.90
33414;DHT22;60055;41.884;12.534;2022-12-29T11:33:40;16.10;99.90
33414;DHT22;60055;41.884;12.534;2022-12-29T11:36:11;16.00;99.90
33414;DHT22;60055;41.884;12.534;2022-12-29T11:38:41;16.10;99.90
33414;DHT22;60055;41.884;12.534;2022-12-29T11:41:26;16.10;99.90
33414;DHT22;60055;41.884;12.534;2022-12-29T11:43:55;16.10;99.90
33414;DHT22;60055;41.884;12.534;2022-12-29T11:48:51;16.30;99.90
33414;DHT22;60055;41.884;12.534;2022-12-29T11:51:35;16.30;99.90
33414;DHT22;60055;41.884;12.534;2022-12-29T11:54:04;16.30;99.90
33414;DHT22;60055;41.884;12.534;2022-12-29T11:56:41;16.10;99.90
33414;DHT22;60055;41.884;12.534;2022-12-29T12:05:25;16.10;99.90
33414;DHT22;60055;41.884;12.534;2022-12-29T12:08:01;16.30;99.90
33414;DHT22;60055;41.884;12.534;2022-12-29T12:11:09;16.30;99.90
33414;DHT22;60055;41.884;12.534;2022-12-29T12:13:46;16.20;99.90
33414;DHT22;60055;41.884;12.534;2022-12-29T12:16:19;16.40;99.90
33414;DHT22;60055;41.884;12.534;2022-12-29T12:18:53;16.30;99.90
33414;DHT22;60055;41.884;12.534;2022-12-29T12:21:40;16.20;99.90
33414;DHT22;60055;41.884;12.534;2022-12-29T12:24:45;16.10;99.90
33414;DHT22;60055;41.884;12.534;2022-12-29T12:27:38;16.10;99.90
33414;DHT22;60055;41.884;12.534;2022-12-29T12:30:22;16.20;99.90
33414;DHT22;60055;41.884;12.534;2022-12-29T12:33:03;16.30;99.90
33414;DHT22;60055;41.884;12.534;2022-12-29T12:36:09;16.30;99.90
33414;DHT22;60055;41.884;12.534;2022-12-29T12:47:36;16.50;99.90
33414;DHT22;60055;41.884;12.534;2022-12-29T13:07:14;16.60;99.90
33414;DHT22;60055;41.884;12.534;2022-12-29T13:09:51;16.60;99.90
33414;DHT22;60055;41.884;12.534;2022-12-29T13:21:21;16.40;99.90
33414;DHT22;60055;41.884;12.534;2022-12-29T13:24:15;16.40;99.90
33414;DHT22;60055;41.884;12.534;2022-12-29T13:26:53;16.40;99.90
33414;DHT22;60055;41.884;12.534;2022-12-29T13:37:27;16.30;99.90
33414;DHT22;60055;41.884;12.534;2022-12-29T13:40:10;16.40;99.90
33414;DHT22;60055;41.884;12.534;2022-12-29T13:42:38;16.40;99.90
33414;DHT22;60055;41.884;12.534;2022-12-29T13:45:10;16.30;99.90
33414;DHT22;60055;41.884;12.534;2022-12-29T13:47:44;16.30;99.90
33414;DHT22;60055;41.884;12.534;2022-12-29T13:50:16;16.30;99.90
33414;DHT22;60055;41.884;12.534;2022-12-29T13:55:27;16.20;99.90
33414;DHT22;60055;41.884;12.534;2022-12-29T13:58:21;16.20;99.90
33414;DHT22;60055;41.884;12.534;2022-12-29T14:01:27;16.20;99.90
33414;DHT22;60055;41.884;12.534;2022-12-29T14:03:57;16.20;99.90
33414;DHT22;60055;41.884;12.534;2022-12-29T14:06:32;16.20;99.90
33414;DHT22;60055;41.884;12.534;2022-12-29T14:09:02;16.10;99.90
33414;DHT22;60055;41.884;12.534;2022-12-29T14:11:39;16.10;99.90
33414;DHT22;60055;41.884;12.534;2022-12-29T14:14:18;16.10;99.90
33414;DHT22;60055;41.884;12.534;2022-12-29T14:16:45;16.10;99.90
33414;DHT22;60055;41.884;12.534;2022-12-29T14:19:30;16.00;99.90
33414;DHT22;60055;41.884;12.534;2022-12-29T14:26:54;15.90;99.90
33414;DHT22;60055;41.884;12.534;2022-12-29T14:31:54;15.90;99.90
33414;DHT22;60055;41.884;12.534;2022-12-29T14:37:01;15.80;99.90
33414;DHT22;60055;41.884;12.534;2022-12-29T14:39:37;15.80;99.90
33414;DHT22;60055;41.884;12.534;2022-12-29T14:44:47;15.70;99.90
33414;DHT22;60055;41.884;12.534;2022-12-29T14:49:54;15.70;99.90
33414;DHT22;60055;41.884;12.534;2022-12-29T14:52:22;15.70;99.90
33414;DHT22;60055;41.884;12.534;2022-12-29T14:57:39;15.60;99.90
33414;DHT22;60055;41.884;12.534;2022-12-29T15:00:16;15.60;99.90
33414;DHT22;60055;41.884;12.534;2022-12-29T15:02:59;15.60;99.90
33414;DHT22;60055;41.884;12.534;2022-12-29T15:05:36;15.60;99.90
33414;DHT22;60055;41.884;12.534;2022-12-29T15:08:04;15.50;99.90
33414;DHT22;60055;41.884;12.534;2022-12-29T15:10:39;15.50;99.90
33414;DHT22;60055;41.884;12.534;2022-12-29T15:13:14;15.50;99.90
33414;DHT22;60055;41.884;12.534;2022-12-29T15:15:40;15.40;99.90
33414;DHT22;60055;41.884;12.534;2022-12-29T15:18:25;15.40;99.90
33414;DHT22;60055;41.884;12.534;2022-12-29T15:21:03;15.40;99.90
33414;DHT22;60055;41.884;12.534;2022-12-29T15:23:33;15.40;99.90
33414;DHT22;60055;41.884;12.534;2022-12-29T15:26:05;15.40;99.90
33414;DHT22;60055;41.884;12.534;2022-12-29T15:28:46;15.40;99.90
33414;DHT22;60055;41.884;12.534;2022-12-29T15:31:17;15.30;99.90
33414;DHT22;60055;41.884;12.534;2022-12-29T15:33:46;15.30;99.90
33414;DHT22;60055;41.884;12.534;2022-12-29T15:36:26;15.20;99.90
33414;DHT22;60055;41.884;12.534;2022-12-29T15:38:52;15.20;99.90
33414;DHT22;60055;41.884;12.534;2022-12-29T15:47:01;15.10;99.90
33414;DHT22;60055;41.884;12.534;2022-12-29T15:49:27;15.10;99.90
33414;DHT22;60055;41.884;12.534;2022-12-29T15:51:53;15.10;99.90
33414;DHT22;60055;41.884;12.534;2022-12-29T15:54:21;15.10;99.90
33414;DHT22;60055;41.884;12.534;2022-12-29T15:56:47;15.00;99.90
33414;DHT22;60055;41.884;12.534;2022-12-29T15:59:30;15.00;99.90
33414;DHT22;60055;41.884;12.534;2022-12-29T16:01:56;14.90;99.90
33414;DHT22;60055;41.884;12.534;2022-12-29T16:04:24;15.00;99.90
33414;DHT22;60055;41.884;12.534;2022-12-29T16:07:03;14.90;99.90
33414;DHT22;60055;41.884;12.534;2022-12-29T16:11:58;14.90;99.90
33414;DHT22;60055;41.884;12.534;2022-12-29T16:14:32;14.80;99.90
33414;DHT22;60055;41.884;12.534;2022-12-29T16:17:01;14.90;99.90
33414;DHT22;60055;41.884;12.534;2022-12-29T16:21:58;14.80;99.90
33414;DHT22;60055;41.884;12.534;2022-12-29T16:24:30;14.80;99.90
33414;DHT22;60055;41.884;12.534;2022-12-29T16:27:10;14.80;99.90
33414;DHT22;60055;41.884;12.534;2022-12-29T16:29:39;14.70;99.90
33414;DHT22;60055;41.884;12.534;2022-12-29T16:32:27;14.70;99.90
33414;DHT22;60055;41.884;12.534;2022-12-29T16:35:11;14.70;99.90
33414;DHT22;60055;41.884;12.534;2022-12-29T16:37:37;14.70;99.90
33414;DHT22;60055;41.884;12.534;2022-12-29T16:42:48;14.80;99.90
33414;DHT22;60055;41.884;12.534;2022-12-29T16:50:31;14.70;99.90
33414;DHT22;60055;41.884;12.534;2022-12-29T16:52:58;14.70;99.90
33414;DHT22;60055;41.884;12.534;2022-12-29T16:55:24;14.70;99.90
33414;DHT22;60055;41.884;12.534;2022-12-29T16:57:52;14.70;99.90
33414;DHT22;60055;41.884;12.534;2022-12-29T17:00:24;14.70;99.90
33414;DHT22;60055;41.884;12.534;2022-12-29T17:02:54;14.70;99.90
33414;DHT22;60055;41.884;12.534;2022-12-29T17:05:20;14.60;99.90
33414;DHT22;60055;41.884;12.534;2022-12-29T17:07:47;14.60;99.90
33414;DHT22;60055;41.884;12.534;2022-12-29T17:10:14;14.60;99.90
33414;DHT22;60055;41.884;12.534;2022-12-29T17:12:41;14.70;99.90
33414;DHT22;60055;41.884;12.534;2022-12-29T17:15:18;14.60;99.90
33414;DHT22;60055;41.884;12.534;2022-12-29T17:17:48;14.60;99.90
33414;DHT22;60055;41.884;12.534;2022-12-29T17:20:23;14.60;99.90
33414;DHT22;60055;41.884;12.534;2022-12-29T17:22:49;14.50;99.90
33414;DHT22;60055;41.884;12.534;2022-12-29T17:25:20;14.50;99.90
33414;DHT22;60055;41.884;12.534;2022-12-29T17:27:47;14.60;99.90
33414;DHT22;60055;41.884;12.534;2022-12-29T17:30:20;14.60;99.90
33414;DHT22;60055;41.884;12.534;2022-12-29T17:32:59;14.60;99.90
33414;DHT22;60055;41.884;12.534;2022-12-29T17:35:25;14.60;99.90
33414;DHT22;60055;41.884;12.534;2022-12-29T17:37:51;14.60;99.90
33414;DHT22;60055;41.884;12.534;2022-12-29T17:40:21;14.50;99.90
33414;DHT22;60055;41.884;12.534;2022-12-29T17:42:49;14.50;99.90
33414;DHT22;60055;41.884;12.534;2022-12-29T17:45:23;14.40;99.90
33414;DHT22;60055;41.884;12.534;2022-12-29T17:47:49;14.50;99.90
33414;DHT22;60055;41.884;12.534;2022-12-29T17:50:22;14.40;99.90
33414;DHT22;60055;41.884;12.534;2022-12-29T17:52:54;14.40;99.90
33414;DHT22;60055;41.884;12.534;2022-12-29T17:55:22;14.50;99.90
33414;DHT22;60055;41.884;12.534;2022-12-29T17:57:49;14.50;99.90